createdAt,value
2018-06-10T00:01:51.500Z,6.37
2018-06-10T00:04:20.190Z,7.57
2018-06-10T00:06:48.893Z,6.47
2018-06-10T00:09:17.741Z,7.10
2018-06-10T00:11:46.588Z,6.13
2018-06-10T00:14:15.308Z,6.50
2018-06-10T00:16:44.057Z,5.80
2018-06-10T00:19:12.828Z,6.20
2018-06-10T00:21:41.646Z,6.33
2018-06-10T00:24:10.407Z,5.70
2018-06-10T00:26:39.135Z,6.23
2018-06-10T00:29:12.947Z,6.57
2018-06-10T00:31:41.669Z,5.70
2018-06-10T00:34:10.486Z,6.13
2018-06-10T00:36:39.220Z,5.43
2018-06-10T00:39:08.353Z,5.90
2018-06-10T00:41:37.561Z,5.93
2018-06-10T00:44:06.309Z,5.87
2018-06-10T00:46:35.117Z,5.67
2018-06-10T00:49:03.817Z,5.70
2018-06-10T00:51:32.538Z,5.27
2018-06-10T00:54:01.251Z,5.73
2018-06-10T00:56:41.141Z,5.10
2018-06-10T00:59:09.861Z,7.07
2018-06-10T01:01:38.570Z,5.17
2018-06-10T01:04:07.322Z,5.90
2018-06-10T01:06:36.037Z,5.80
2018-06-10T01:09:06.472Z,5.40
2018-06-10T01:11:35.314Z,4.40
2018-06-10T01:14:04.042Z,5.20
2018-06-10T01:16:32.734Z,4.90
2018-06-10T01:19:01.661Z,5.17
2018-06-10T01:21:30.369Z,5.50
2018-06-10T01:23:59.146Z,4.70
2018-06-10T01:26:32.885Z,4.83
2018-06-10T01:29:01.611Z,5.30
2018-06-10T01:31:30.322Z,5.40
2018-06-10T01:33:59.076Z,5.80
2018-06-10T01:36:27.779Z,5.60
2018-06-10T01:38:56.487Z,4.50
2018-06-10T01:41:25.221Z,5.43
2018-06-10T01:43:53.909Z,4.93
2018-06-10T01:46:22.605Z,6.77
2018-06-10T01:48:51.350Z,5.03
2018-06-10T01:51:20.133Z,4.70
2018-06-10T01:53:48.864Z,4.50
2018-06-10T01:56:17.630Z,6.13
2018-06-10T01:58:46.353Z,4.87
2018-06-10T02:01:15.108Z,5.30
2018-06-10T02:03:43.866Z,5.60
2018-06-10T02:06:12.739Z,4.80
2018-06-10T02:08:41.445Z,4.40
2018-06-10T02:11:10.187Z,5.70
2018-06-10T02:13:38.906Z,4.50
2018-06-10T02:16:07.622Z,4.37
2018-06-10T02:18:36.343Z,4.63
2018-06-10T02:21:05.052Z,5.30
2018-06-10T02:23:33.789Z,4.43
2018-06-10T02:26:02.522Z,4.73
2018-06-10T02:28:31.225Z,4.73
2018-06-10T02:30:59.950Z,4.87
2018-06-10T02:33:28.698Z,5.77
2018-06-10T02:35:57.399Z,4.70
2018-06-10T02:38:26.325Z,4.33
2018-06-10T02:40:55.171Z,4.70
2018-06-10T02:43:23.883Z,4.97
2018-06-10T02:45:52.588Z,5.10
2018-06-10T02:48:21.383Z,4.93
2018-06-10T02:50:50.061Z,4.60
2018-06-10T02:53:18.826Z,4.93
2018-06-10T02:55:47.566Z,5.73
2018-06-10T02:58:16.256Z,5.10
2018-06-10T03:00:44.983Z,5.20
2018-06-10T03:03:13.722Z,4.90
2018-06-10T03:05:42.452Z,4.33
2018-06-10T03:08:11.325Z,5.53
2018-06-10T03:10:40.054Z,5.10
2018-06-10T03:13:08.758Z,4.80
2018-06-10T03:15:37.449Z,4.47
2018-06-10T03:18:06.192Z,4.77
2018-06-10T03:20:34.897Z,4.30
2018-06-10T03:23:03.774Z,5.30
2018-06-10T03:25:32.502Z,7.20
2018-06-10T03:28:01.465Z,6.50
2018-06-10T03:30:30.174Z,6.50
2018-06-10T03:32:58.955Z,5.40
2018-06-10T03:35:27.667Z,5.50
2018-06-10T03:37:56.397Z,4.80
2018-06-10T03:40:25.383Z,6.50
2018-06-10T03:42:54.081Z,5.27
2018-06-10T03:45:22.920Z,4.13
2018-06-10T03:47:51.672Z,4.50
2018-06-10T03:50:20.380Z,5.80
2018-06-10T03:52:49.080Z,4.77
2018-06-10T03:55:17.814Z,6.80
2018-06-10T03:57:46.526Z,4.60
2018-06-10T04:00:15.241Z,6.73
2018-06-10T04:02:43.970Z,3.80
2018-06-10T04:05:12.967Z,4.03
2018-06-10T04:07:41.841Z,4.00
2018-06-10T04:10:10.577Z,4.53
2018-06-10T04:12:39.276Z,5.00
2018-06-10T04:15:07.957Z,4.10
2018-06-10T04:17:36.678Z,3.60
2018-06-10T04:20:05.385Z,3.73
2018-06-10T04:22:34.130Z,4.03
2018-06-10T04:25:02.861Z,3.93
2018-06-10T04:27:32.046Z,3.70
2018-06-10T04:30:01.212Z,4.40
2018-06-10T04:32:30.564Z,4.23
2018-06-10T04:34:59.858Z,6.90
2018-06-10T04:37:28.977Z,4.20
2018-06-10T04:39:57.728Z,3.90
2018-06-10T04:42:26.832Z,4.90
2018-06-10T04:44:55.749Z,7.40
2018-06-10T04:47:28.666Z,5.33
2018-06-10T04:49:57.990Z,4.70
2018-06-10T04:52:26.846Z,4.27
2018-06-10T04:54:55.576Z,4.50
2018-06-10T04:57:24.269Z,4.43
2018-06-10T04:59:52.986Z,4.17
2018-06-10T05:02:21.692Z,4.43
2018-06-10T05:04:50.483Z,8.40
2018-06-10T05:07:19.168Z,3.97
2018-06-10T05:09:47.897Z,4.00
2018-06-10T05:12:16.599Z,3.70
2018-06-10T05:14:45.302Z,4.87
2018-06-10T05:17:14.054Z,6.63
2018-06-10T05:19:42.772Z,4.10
2018-06-10T05:22:11.537Z,4.20
2018-06-10T05:24:40.257Z,4.50
2018-06-10T05:27:08.962Z,4.03
2018-06-10T05:29:37.743Z,5.67
2018-06-10T05:32:06.507Z,3.70
2018-06-10T05:34:35.210Z,4.33
2018-06-10T05:37:04.010Z,4.90
2018-06-10T05:39:32.765Z,3.50
2018-06-10T05:42:01.502Z,2.97
2018-06-10T05:44:30.238Z,4.10
2018-06-10T05:46:58.973Z,4.10
2018-06-10T05:49:27.653Z,4.00
2018-06-10T05:51:56.776Z,3.57
2018-06-10T05:54:25.673Z,4.50
2018-06-10T05:56:54.456Z,4.50
2018-06-10T05:59:23.323Z,4.10
2018-06-10T06:01:52.115Z,4.10
2018-06-10T06:04:20.821Z,4.67
2018-06-10T06:06:49.713Z,4.20
2018-06-10T06:09:18.578Z,4.23
2018-06-10T06:11:47.263Z,3.30
2018-06-10T06:14:15.970Z,3.37
2018-06-10T06:16:44.711Z,3.77
2018-06-10T06:19:13.493Z,2.80
2018-06-10T06:21:42.329Z,3.90
2018-06-10T06:24:11.049Z,3.70
2018-06-10T06:26:39.744Z,4.50
2018-06-10T06:29:08.456Z,3.77
2018-06-10T06:31:37.177Z,4.33
2018-06-10T06:34:05.885Z,4.07
2018-06-10T06:36:34.582Z,4.50
2018-06-10T06:39:03.472Z,4.33
2018-06-10T06:41:32.179Z,5.10
2018-06-10T06:44:00.962Z,4.83
2018-06-10T06:46:29.699Z,5.73
2018-06-10T06:48:58.403Z,4.93
2018-06-10T06:51:27.113Z,4.80
2018-06-10T06:53:55.881Z,4.77
2018-06-10T06:56:24.624Z,4.80
2018-06-10T06:58:53.378Z,5.80
2018-06-10T07:01:22.134Z,6.47
2018-06-10T07:03:50.970Z,5.70
2018-06-10T07:06:20.109Z,6.70
2018-06-10T07:08:49.068Z,5.20
2018-06-10T07:11:18.026Z,5.93
2018-06-10T07:13:47.121Z,5.77
2018-06-10T07:16:16.067Z,6.40
2018-06-10T07:18:44.933Z,6.80
2018-06-10T07:21:13.855Z,4.70
2018-06-10T07:23:42.763Z,5.10
2018-06-10T07:26:11.718Z,4.90
2018-06-10T07:28:40.797Z,5.10
2018-06-10T07:31:09.681Z,4.93
2018-06-10T07:33:38.575Z,6.17
2018-06-10T07:36:07.559Z,6.00
2018-06-10T07:38:36.467Z,4.90
2018-06-10T07:41:05.338Z,4.70
2018-06-10T07:43:34.258Z,5.77
2018-06-10T07:46:03.262Z,5.33
2018-06-10T07:48:32.286Z,5.17
2018-06-10T07:51:01.141Z,4.90
2018-06-10T07:53:30.055Z,5.97
2018-06-10T07:55:58.929Z,5.20
2018-06-10T07:58:27.793Z,5.10
2018-06-10T08:00:56.729Z,5.00
2018-06-10T08:03:25.629Z,5.90
2018-06-10T08:05:54.538Z,4.80
2018-06-10T08:08:23.517Z,6.63
2018-06-10T08:10:52.428Z,5.60
2018-06-10T08:13:21.292Z,5.53
2018-06-10T08:15:50.219Z,5.30
2018-06-10T08:18:19.129Z,5.37
2018-06-10T08:20:48.029Z,5.27
2018-06-10T08:23:16.937Z,6.67
2018-06-10T08:25:45.776Z,7.33
2018-06-10T08:28:14.666Z,5.17
2018-06-10T08:30:43.623Z,5.57
2018-06-10T08:33:12.603Z,4.73
2018-06-10T08:35:41.454Z,5.87
2018-06-10T08:38:10.566Z,4.20
2018-06-10T08:40:39.488Z,5.50
2018-06-10T08:43:08.755Z,5.40
2018-06-10T08:45:37.709Z,5.90
2018-06-10T08:48:06.690Z,4.50
2018-06-10T08:50:36.703Z,3.83
2018-06-10T08:53:05.777Z,5.10
2018-06-10T08:55:34.612Z,3.80
2018-06-10T08:58:03.773Z,4.13
2018-06-10T09:00:32.706Z,4.30
2018-06-10T09:03:01.631Z,3.47
2018-06-10T09:05:30.513Z,4.80
2018-06-10T09:07:59.438Z,4.10
2018-06-10T09:10:28.341Z,3.97
2018-06-10T09:12:57.242Z,4.10
2018-06-10T09:15:26.222Z,4.22
2018-06-10T09:17:55.059Z,4.22
2018-06-10T09:20:23.918Z,4.90
2018-06-10T09:22:52.834Z,3.98
2018-06-10T09:25:21.713Z,4.40
2018-06-10T09:27:50.522Z,4.83
2018-06-10T09:30:19.397Z,5.03
2018-06-10T09:32:48.234Z,4.23
2018-06-10T09:35:17.149Z,4.40
2018-06-10T09:37:46.096Z,4.63
2018-06-10T09:40:15.003Z,4.73
2018-06-10T09:42:43.874Z,5.80
2018-06-10T09:45:13.353Z,5.80
2018-06-10T09:47:42.597Z,5.77
2018-06-10T09:50:11.990Z,4.57
2018-06-10T09:52:41.386Z,4.70
2018-06-10T09:55:10.724Z,4.58
2018-06-10T09:57:40.011Z,4.25
2018-06-10T10:00:09.546Z,3.65
2018-06-10T10:02:38.905Z,4.47
2018-06-10T10:05:08.005Z,3.97
2018-06-10T10:07:37.342Z,4.40
2018-06-10T10:10:06.597Z,3.80
2018-06-10T10:12:35.847Z,5.03
2018-06-10T10:15:05.264Z,5.00
2018-06-10T10:17:34.562Z,4.97
2018-06-10T10:20:03.707Z,4.70
2018-06-10T10:22:32.926Z,4.97
2018-06-10T10:25:02.270Z,5.40
2018-06-10T10:27:31.561Z,4.60
2018-06-10T10:30:00.922Z,6.67
2018-06-10T10:32:30.885Z,5.00
2018-06-10T10:35:00.291Z,4.37
2018-06-10T10:37:29.446Z,3.73
2018-06-10T10:39:58.673Z,3.67
2018-06-10T10:42:27.851Z,3.77
2018-06-10T10:44:57.178Z,3.90
2018-06-10T10:47:26.574Z,4.60
2018-06-10T10:49:55.839Z,4.55
2018-06-10T10:52:25.072Z,5.00
2018-06-10T10:54:54.299Z,4.67
2018-06-10T10:57:23.670Z,5.57
2018-06-10T10:59:52.905Z,5.90
2018-06-10T11:02:22.334Z,5.43
2018-06-10T11:04:51.625Z,4.40
2018-06-10T11:07:20.835Z,4.30
2018-06-10T11:09:50.033Z,3.90
2018-06-10T11:12:19.286Z,4.97
2018-06-10T11:14:48.042Z,3.73
2018-06-10T11:17:16.797Z,4.50
2018-06-10T11:19:45.535Z,5.20
2018-06-10T11:22:14.281Z,4.30
2018-06-10T11:24:42.994Z,3.72
2018-06-10T11:27:11.806Z,4.33
2018-06-10T11:29:40.510Z,3.83
2018-06-10T11:32:09.280Z,3.90
2018-06-10T11:34:37.997Z,3.62
2018-06-10T11:37:06.709Z,3.62
2018-06-10T11:39:35.530Z,3.30
2018-06-10T11:42:04.272Z,3.80
2018-06-10T11:44:32.975Z,4.65
2018-06-10T11:47:01.712Z,4.67
2018-06-10T11:49:30.450Z,3.80
2018-06-10T11:51:59.169Z,3.52
2018-06-10T11:54:27.892Z,4.53
2018-06-10T11:56:56.832Z,4.33
2018-06-10T11:59:26.162Z,4.13
2018-06-10T12:01:55.202Z,3.97
2018-06-10T12:04:24.239Z,4.60
2018-06-10T12:06:52.950Z,4.15
2018-06-10T12:09:21.898Z,4.03
2018-06-10T12:11:50.654Z,3.98
2018-06-10T12:14:19.426Z,5.70
2018-06-10T12:16:48.175Z,4.13
2018-06-10T12:19:16.938Z,4.83
2018-06-10T12:21:45.668Z,4.63
2018-06-10T12:24:14.382Z,3.70
2018-06-10T12:26:43.146Z,4.53
2018-06-10T12:29:11.917Z,4.53
2018-06-10T12:31:40.746Z,5.10
2018-06-10T12:34:09.499Z,3.60
2018-06-10T12:36:38.222Z,4.30
2018-06-10T12:39:08.594Z,3.70
2018-06-10T12:41:37.691Z,4.67
2018-06-10T12:44:06.377Z,4.23
2018-06-10T12:46:35.138Z,4.47
2018-06-10T12:49:03.944Z,3.73
2018-06-10T12:51:32.728Z,4.07
2018-06-10T12:54:01.422Z,4.03
2018-06-10T12:56:30.156Z,4.47
2018-06-10T12:58:58.845Z,4.63
2018-06-10T13:01:27.593Z,4.30
2018-06-10T13:03:56.354Z,3.87
2018-06-10T13:06:25.101Z,3.77
2018-06-10T13:08:53.818Z,4.43
2018-06-10T13:11:22.631Z,3.90
2018-06-10T13:13:51.356Z,3.90
2018-06-10T13:16:20.073Z,3.47
2018-06-10T13:18:48.922Z,4.70
2018-06-10T13:21:17.650Z,4.70
2018-06-10T13:23:46.641Z,4.20
2018-06-10T13:26:15.412Z,3.93
2018-06-10T13:28:44.140Z,4.80
2018-06-10T13:31:12.951Z,4.67
2018-06-10T13:33:41.698Z,4.00
2018-06-10T13:36:10.672Z,4.37
2018-06-10T13:38:39.451Z,4.47
2018-06-10T13:41:08.329Z,6.50
2018-06-10T13:43:37.025Z,4.40
2018-06-10T13:46:05.761Z,4.70
2018-06-10T13:48:34.998Z,4.40
2018-06-10T13:51:04.165Z,3.13
2018-06-10T13:53:33.385Z,3.67
2018-06-10T13:56:02.587Z,4.27
2018-06-10T13:58:31.283Z,4.70
2018-06-10T14:01:00.334Z,4.03
2018-06-10T14:03:29.588Z,6.07
2018-06-10T14:05:58.800Z,4.83
2018-06-10T14:08:27.938Z,5.27
2018-06-10T14:10:56.990Z,4.43
2018-06-10T14:13:26.153Z,5.63
2018-06-10T14:15:54.859Z,6.43
2018-06-10T14:18:24.134Z,4.50
2018-06-10T14:20:53.351Z,4.90
2018-06-10T14:23:22.509Z,3.80
2018-06-10T14:25:51.722Z,4.33
2018-06-10T14:28:20.896Z,4.70
2018-06-10T14:30:49.839Z,5.07
2018-06-10T14:33:18.865Z,4.13
2018-06-10T14:35:47.603Z,4.60
2018-06-10T14:38:16.872Z,5.53
2018-06-10T14:40:46.216Z,6.07
2018-06-10T14:43:15.434Z,3.50
2018-06-10T14:45:44.573Z,3.77
2018-06-10T14:48:13.304Z,3.73
2018-06-10T14:50:42.547Z,3.80
2018-06-10T14:53:11.565Z,3.40
2018-06-10T14:55:40.784Z,4.20
2018-06-10T14:58:09.482Z,4.53
2018-06-10T15:00:38.328Z,4.97
2018-06-10T15:03:07.477Z,8.33
2018-06-10T15:05:36.641Z,5.60
2018-06-10T15:08:06.029Z,4.07
2018-06-10T15:10:35.317Z,5.30
2018-06-10T15:13:04.564Z,4.70
2018-06-10T15:15:33.757Z,4.23
2018-06-10T15:18:02.914Z,4.33
2018-06-10T15:20:31.633Z,4.07
2018-06-10T15:23:00.517Z,4.87
2018-06-10T15:25:29.268Z,4.67
2018-06-10T15:27:58.984Z,5.47
2018-06-10T15:30:27.770Z,3.67
2018-06-10T15:32:56.477Z,5.77
2018-06-10T15:35:25.182Z,4.20
2018-06-10T15:37:53.918Z,4.50
2018-06-10T15:40:22.755Z,4.60
2018-06-10T15:42:51.455Z,4.30
2018-06-10T15:45:20.212Z,4.80
2018-06-10T15:47:48.951Z,4.00
2018-06-10T15:50:17.718Z,3.27
2018-06-10T15:52:46.458Z,3.13
2018-06-10T15:55:15.256Z,3.40
2018-06-10T15:57:43.958Z,4.60
2018-06-10T16:00:12.693Z,3.87
2018-06-10T16:02:41.493Z,5.23
2018-06-10T16:05:10.374Z,4.47
2018-06-10T16:07:39.117Z,4.73
2018-06-10T16:10:07.852Z,3.43
2018-06-10T16:12:36.565Z,4.10
2018-06-10T16:15:05.645Z,5.00
2018-06-10T16:17:34.349Z,5.10
2018-06-10T16:20:03.446Z,4.20
2018-06-10T16:22:32.477Z,6.20
2018-06-10T16:25:01.707Z,5.40
2018-06-10T16:27:30.443Z,5.63
2018-06-10T16:29:59.205Z,4.60
2018-06-10T16:32:27.923Z,4.73
2018-06-10T16:34:56.629Z,5.20
2018-06-10T16:37:25.353Z,3.50
2018-06-10T16:39:54.509Z,4.37
2018-06-10T16:42:23.765Z,3.50
2018-06-10T16:44:52.909Z,3.50
2018-06-10T16:47:22.169Z,5.07
2018-06-10T16:49:51.377Z,3.37
2018-06-10T16:52:20.601Z,4.27
2018-06-10T16:54:49.759Z,5.03
2018-06-10T16:57:18.754Z,4.90
2018-06-10T16:59:47.978Z,3.83
2018-06-10T17:02:17.150Z,4.90
2018-06-10T17:04:46.345Z,6.00
2018-06-10T17:07:15.577Z,4.33
2018-06-10T17:09:44.745Z,4.70
2018-06-10T17:12:13.943Z,4.43
2018-06-10T17:14:43.265Z,5.07
2018-06-10T17:17:12.458Z,4.77
2018-06-10T17:19:41.209Z,5.60
2018-06-10T17:22:09.949Z,4.80
2018-06-10T17:24:38.739Z,5.60
2018-06-10T17:27:07.448Z,5.53
2018-06-10T17:29:36.181Z,8.33
2018-06-10T17:32:04.940Z,4.60
2018-06-10T17:34:34.102Z,3.80
2018-06-10T17:37:03.199Z,5.20
2018-06-10T17:39:31.913Z,6.73
2018-06-10T17:42:00.617Z,6.53
2018-06-10T17:44:29.358Z,4.90
2018-06-10T17:46:58.076Z,5.90
2018-06-10T17:49:26.811Z,6.43
2018-06-10T17:51:55.543Z,6.70
2018-06-10T17:54:24.270Z,5.87
2018-06-10T17:56:53.001Z,5.27
2018-06-10T17:59:21.804Z,6.50
2018-06-10T18:01:50.584Z,4.63
2018-06-10T18:04:19.293Z,5.60
2018-06-10T18:06:48.145Z,5.80
2018-06-10T18:09:16.841Z,5.17
2018-06-10T18:11:45.546Z,6.13
2018-06-10T18:14:14.328Z,5.60
2018-06-10T18:16:43.049Z,6.23
2018-06-10T18:19:11.750Z,6.73
2018-06-10T18:21:40.488Z,4.70
2018-06-10T18:24:09.190Z,6.37
2018-06-10T18:26:38.001Z,4.90
2018-06-10T18:29:06.810Z,6.70
2018-06-10T18:31:35.554Z,5.40
2018-06-10T18:34:04.294Z,5.50
2018-06-10T18:36:33.030Z,5.90
2018-06-10T18:39:01.733Z,5.43
2018-06-10T18:41:30.479Z,5.70
2018-06-10T18:43:59.272Z,6.20
2018-06-10T18:46:28.017Z,5.57
2018-06-10T18:48:56.775Z,5.87
2018-06-10T18:51:25.550Z,5.00
2018-06-10T18:53:54.303Z,6.80
2018-06-10T18:56:23.033Z,6.00
2018-06-10T18:58:51.812Z,5.70
2018-06-10T19:01:20.557Z,5.43
2018-06-10T19:03:49.319Z,6.70
2018-06-10T19:06:18.138Z,5.97
2018-06-10T19:08:46.846Z,6.50
2018-06-10T19:11:15.621Z,5.57
2018-06-10T19:13:44.395Z,5.47
2018-06-10T19:16:13.128Z,6.47
2018-06-10T19:18:41.839Z,7.53
2018-06-10T19:21:11.712Z,6.57
2018-06-10T19:23:40.508Z,6.63
2018-06-10T19:26:09.236Z,6.83
2018-06-10T19:28:37.979Z,8.10
2018-06-10T19:31:06.761Z,7.03
2018-06-10T19:33:35.504Z,7.63
2018-06-10T19:36:04.290Z,8.60
2018-06-10T19:38:33.046Z,9.10
2018-06-10T19:41:01.802Z,7.47
2018-06-10T19:43:30.582Z,8.47
2018-06-10T19:45:59.341Z,8.00
2018-06-10T19:48:28.025Z,8.40
2018-06-10T19:50:56.955Z,7.30
2018-06-10T19:53:25.677Z,8.40
2018-06-10T19:55:54.400Z,8.10
2018-06-10T19:58:23.149Z,8.00
2018-06-10T20:00:51.868Z,8.00
2018-06-10T20:03:20.605Z,7.40
2018-06-10T20:05:49.430Z,7.23
2018-06-10T20:08:18.159Z,7.00
2018-06-10T20:10:47.104Z,9.33
2018-06-10T20:13:16.439Z,10.00
2018-06-10T20:15:45.191Z,8.70
2018-06-10T20:18:13.937Z,9.30
2018-06-10T20:20:42.711Z,9.57
2018-06-10T20:23:11.461Z,8.70
2018-06-10T20:25:40.289Z,8.57
2018-06-10T20:28:09.056Z,9.67
2018-06-10T20:30:37.849Z,9.80
2018-06-10T20:33:06.536Z,9.07
2018-06-10T20:35:35.329Z,10.10
2018-06-10T20:38:04.074Z,8.80
2018-06-10T20:40:32.853Z,7.70
2018-06-10T20:43:01.638Z,7.50
2018-06-10T20:45:30.361Z,9.30
2018-06-10T20:47:59.189Z,7.97
2018-06-10T20:50:27.914Z,7.80
2018-06-10T20:52:56.630Z,8.07
2018-06-10T20:55:25.357Z,7.80
2018-06-10T20:57:54.242Z,6.93
2018-06-10T21:00:22.998Z,8.17
2018-06-10T21:02:51.732Z,7.73
2018-06-10T21:05:20.494Z,8.37
2018-06-10T21:07:49.216Z,7.40
2018-06-10T21:10:17.916Z,7.40
2018-06-10T21:12:46.657Z,8.53
2018-06-10T21:15:15.394Z,8.07
2018-06-10T21:17:44.099Z,9.27
2018-06-10T21:20:12.852Z,8.07
2018-06-10T21:22:41.563Z,9.27
2018-06-10T21:25:10.332Z,7.73
2018-06-10T21:27:39.053Z,9.83
2018-06-10T21:30:07.740Z,8.10
2018-06-10T21:32:36.441Z,11.30
2018-06-10T21:35:05.270Z,8.27
2018-06-10T21:37:34.161Z,8.97
2018-06-10T21:40:02.867Z,8.27
2018-06-10T21:42:31.601Z,8.87
2018-06-10T21:45:00.493Z,8.53
2018-06-10T21:47:29.201Z,8.63
2018-06-10T21:49:57.967Z,8.30
2018-06-10T21:52:26.699Z,8.40
2018-06-10T21:54:55.442Z,9.53
2018-06-10T21:57:24.253Z,8.47
2018-06-10T21:59:53.013Z,8.50
2018-06-10T22:02:21.746Z,10.03
2018-06-10T22:04:50.544Z,11.90
2018-06-10T22:07:19.307Z,9.80
2018-06-10T22:09:48.042Z,9.00
2018-06-10T22:12:16.789Z,8.37
2018-06-10T22:14:45.510Z,8.27
2018-06-10T22:17:14.210Z,6.80
2018-06-10T22:19:42.933Z,6.97
2018-06-10T22:22:11.654Z,8.50
2018-06-10T22:24:40.391Z,6.60
2018-06-10T22:27:09.136Z,6.73
2018-06-10T22:29:37.952Z,10.57
2018-06-10T22:32:06.783Z,8.73
2018-06-10T22:34:35.513Z,10.90
2018-06-10T22:37:04.255Z,7.67
2018-06-10T22:39:32.953Z,10.13
2018-06-10T22:42:01.692Z,8.80
2018-06-10T22:44:30.385Z,8.50
2018-06-10T22:46:59.110Z,8.80
2018-06-10T22:49:27.837Z,8.10
2018-06-10T22:51:56.545Z,8.20
2018-06-10T22:54:47.265Z,8.53
2018-06-10T22:57:15.977Z,9.07
2018-06-10T22:59:44.733Z,8.50
2018-06-10T23:02:13.465Z,6.30
2018-06-10T23:04:42.193Z,7.80
2018-06-10T23:07:10.976Z,9.53
2018-06-10T23:09:39.731Z,8.97
2018-06-10T23:12:08.441Z,10.80
2018-06-10T23:14:37.137Z,9.13
2018-06-10T23:17:05.877Z,8.23
2018-06-10T23:19:34.580Z,8.47
2018-06-10T23:22:03.276Z,9.40
2018-06-10T23:24:32.029Z,8.60
2018-06-10T23:27:00.740Z,9.90
2018-06-10T23:29:29.471Z,8.60
2018-06-10T23:31:58.220Z,8.80
2018-06-10T23:34:26.934Z,8.50
2018-06-10T23:36:55.649Z,9.47
2018-06-10T23:39:24.410Z,9.03
2018-06-10T23:41:53.298Z,10.17
2018-06-10T23:44:21.984Z,8.93
2018-06-10T23:46:50.705Z,9.43
2018-06-10T23:49:19.397Z,8.97
2018-06-10T23:51:48.097Z,8.80
2018-06-10T23:54:16.965Z,9.50
2018-06-10T23:56:45.813Z,8.20
2018-06-10T23:59:14.517Z,9.90
